KHEY/HEY METAR and TAF weather

Enter ICAO airport designator
Station Type Date Time Source
KHEY METAR 2021/09/27 07:58 UTC NOAA

KHEY 270758Z AUTO 02003KT 10SM CLR 17/16 A3007 RMK AO2 SLP183 T01660160


Station Type Date Time Source
KHEY Decoded METAR 2021/09/27 07:58 UTC NOAA

Hanchey AHP / Ozark, AL, United States (KHEY) 31-21N 085-40W
Sep 27, 2021 - 03:58 AM EDT / 2021.09.27 0758 UTC
Wind: from the NNE (020 degrees) at 3 MPH (3 KT):0
Visibility: 10 mile(s):0
Sky conditions: clear
Temperature: 61.9 F (16.6 C)
Dew Point: 60.8 F (16.0 C)
Relative Humidity: 96%
Pressure (altimeter): 30.07 in. Hg (1018 hPa)
ob: KHEY 270758Z AUTO 02003KT 10SM CLR 17/16 A3007 RMK AO2 SLP183 T01660160
cycle: 8

Station Type Date Time Source
KHEY TAF UTC NOAA

Error!

Example: see airport list